Time,TemperatureF,DewpointF,PressureIn,WindDirection,WindDirectionDegrees,WindSpeedMPH,WindSpeedGustMPH,Humidity,HourlyPrecipIn,Conditions,Clouds,dailyrainin,SoftwareType,DateUTC
2013-08-04 00:01:00,59.5,58.5,29.80,NNW,331,0.0,0.0,97,0.00,,,0.00,WUHU216PEETBRO,2013-08-04 04:01:00,
2013-08-04 00:02:00,59.7,58.8,29.80,NNW,331,0.0,0.0,97,0.00,,,0.00,WUHU216PEETBRO,2013-08-04 04:02:00,
2013-08-04 00:07:00,59.5,58.4,29.79,NNW,331,0.0,0.0,96,0.00,,,0.00,WUHU216PEETBRO,2013-08-04 04:07:00,
2013-08-04 00:12:00,59.4,58.5,29.79,NNW,331,0.0,0.0,97,0.00,,,0.00,WUHU216PEETBRO,2013-08-04 04:12:00,
2013-08-04 00:17:00,59.3,58.4,29.79,NNW,331,0.0,0.0,97,0.00,,,0.00,WUHU216PEETBRO,2013-08-04 04:17:00,
2013-08-04 00:22:00,59.3,58.4,29.79,NNW,331,0.0,0.0,97,0.00,,,0.00,WUHU216PEETBRO,2013-08-04 04:22:00,
2013-08-04 00:27:00,59.2,58.3,29.79,NNW,331,0.0,0.0,97,0.00,,,0.00,WUHU216PEETBRO,2013-08-04 04:27:00,
2013-08-04 00:32:00,59.1,58.3,29.79,NNW,331,0.0,0.0,97,0.00,,,0.00,WUHU216PEETBRO,2013-08-04 04:32:00,
2013-08-04 00:37:00,59.1,58.3,29.79,NNW,331,0.0,0.0,97,0.00,,,0.00,WUHU216PEETBRO,2013-08-04 04:37:00,
2013-08-04 00:42:00,59.2,58.4,29.79,NNW,331,0.0,0.0,97,0.00,,,0.00,WUHU216PEETBRO,2013-08-04 04:42:00,
2013-08-04 00:47:00,58.8,58.1,29.79,NNW,331,0.0,0.0,98,0.00,,,0.00,WUHU216PEETBRO,2013-08-04 04:47:00,
2013-08-04 00:52:00,58.8,58.1,29.79,NNW,331,0.0,0.0,98,0.00,,,0.00,WUHU216PEETBRO,2013-08-04 04:52:00,
2013-08-04 00:57:00,58.8,58.1,29.79,NNW,331,0.0,0.0,98,0.00,,,0.00,WUHU216PEETBRO,2013-08-04 04:57:00,
2013-08-04 01:02:00,58.8,58.1,29.78,NNW,331,0.0,0.0,98,0.00,,,0.00,WUHU216PEETBRO,2013-08-04 05:02:00,
2013-08-04 01:07:00,58.5,57.8,29.78,NNW,331,0.0,0.0,98,0.00,,,0.00,WUHU216PEETBRO,2013-08-04 05:07:00,
2013-08-04 01:12:00,58.3,57.6,29.78,NNW,331,0.0,0.0,98,0.00,,,0.00,WUHU216PEETBRO,2013-08-04 05:12:00,
2013-08-04 01:17:00,58.4,57.6,29.78,NNW,331,0.0,0.0,97,0.00,,,0.00,WUHU216PEETBRO,2013-08-04 05:17:00,
2013-08-04 01:22:00,58.3,57.7,29.78,NNW,331,0.0,0.0,98,0.00,,,0.00,WUHU216PEETBRO,2013-08-04 05:22:00,
2013-08-04 01:27:00,58.7,58.1,29.78,NNW,331,0.0,0.0,98,0.00,,,0.00,WUHU216PEETBRO,2013-08-04 05:27:00,
2013-08-04 01:32:00,58.1,57.5,29.78,NNW,331,0.0,0.0,98,0.00,,,0.00,WUHU216PEETBRO,2013-08-04 05:32:00,
2013-08-04 01:37:00,58.8,58.2,29.78,NNW,331,0.0,0.0,98,0.00,,,0.00,WUHU216PEETBRO,2013-08-04 05:37:00,
2013-08-04 01:42:00,58.5,57.9,29.78,NNW,331,0.0,0.0,98,0.00,,,0.00,WUHU216PEETBRO,2013-08-04 05:42:00,
2013-08-04 01:47:00,58.7,58.1,29.77,NNW,331,0.0,0.0,98,0.00,,,0.00,WUHU216PEETBRO,2013-08-04 05:47:00,
2013-08-04 01:52:00,58.0,57.4,29.77,NNW,331,0.0,0.0,98,0.00,,,0.00,WUHU216PEETBRO,2013-08-04 05:52:00,
2013-08-04 01:57:00,57.9,57.3,29.77,NNW,331,0.0,0.0,98,0.00,,,0.00,WUHU216PEETBRO,2013-08-04 05:57:00,
2013-08-04 02:02:00,57.6,56.9,29.77,NNW,331,0.0,0.0,98,0.00,,,0.00,WUHU216PEETBRO,2013-08-04 06:02:00,
2013-08-04 02:07:00,58.2,57.6,29.77,NNW,331,0.0,0.0,98,0.00,,,0.00,WUHU216PEETBRO,2013-08-04 06:07:00,
2013-08-04 02:12:00,58.3,57.7,29.77,NNW,331,0.0,0.0,98,0.00,,,0.00,WUHU216PEETBRO,2013-08-04 06:12:00,
2013-08-04 02:17:00,58.0,57.4,29.77,NNW,331,0.0,0.0,98,0.00,,,0.00,WUHU216PEETBRO,2013-08-04 06:17:00,
2013-08-04 02:22:00,57.4,56.8,29.77,NNW,331,0.0,0.0,98,0.00,,,0.00,WUHU216PEETBRO,2013-08-04 06:22:00,
2013-08-04 02:27:00,57.2,56.6,29.77,NNW,331,0.0,0.0,98,0.00,,,0.00,WUHU216PEETBRO,2013-08-04 06:27:00,
2013-08-04 02:32:00,57.8,57.2,29.77,NNW,331,0.0,0.0,98,0.00,,,0.00,WUHU216PEETBRO,2013-08-04 06:32:00,
2013-08-04 02:37:00,57.7,57.1,29.77,NNW,331,0.0,0.0,98,0.00,,,0.00,WUHU216PEETBRO,2013-08-04 06:37:00,
2013-08-04 02:42:00,57.3,56.7,29.77,NNW,331,0.0,0.0,98,0.00,,,0.00,WUHU216PEETBRO,2013-08-04 06:42:00,
2013-08-04 02:47:00,57.3,56.7,29.77,NNW,331,0.0,0.0,98,0.00,,,0.00,WUHU216PEETBRO,2013-08-04 06:47:00,
2013-08-04 02:52:00,57.1,56.5,29.77,NNW,331,0.0,0.0,98,0.00,,,0.00,WUHU216PEETBRO,2013-08-04 06:52:00,
2013-08-04 02:57:00,57.2,56.6,29.77,NNW,331,0.0,0.0,98,0.00,,,0.00,WUHU216PEETBRO,2013-08-04 06:57:00,
2013-08-04 03:02:00,57.2,56.6,29.77,NNW,331,0.0,0.0,98,0.00,,,0.00,WUHU216PEETBRO,2013-08-04 07:02:00,
2013-08-04 03:07:00,57.5,56.9,29.77,NNW,331,0.0,0.0,98,0.00,,,0.00,WUHU216PEETBRO,2013-08-04 07:07:00,
2013-08-04 03:12:00,56.9,56.2,29.77,NNW,331,0.0,0.0,98,0.00,,,0.00,WUHU216PEETBRO,2013-08-04 07:12:00,
2013-08-04 03:17:00,57.2,56.6,29.77,NNW,331,0.0,0.0,98,0.00,,,0.00,WUHU216PEETBRO,2013-08-04 07:17:00,
2013-08-04 03:22:00,56.8,56.3,29.77,NNW,331,0.0,0.0,98,0.00,,,0.00,WUHU216PEETBRO,2013-08-04 07:22:00,
2013-08-04 03:27:00,56.9,56.4,29.77,NNW,331,0.0,0.0,98,0.00,,,0.00,WUHU216PEETBRO,2013-08-04 07:27:00,
2013-08-04 03:32:00,56.9,56.4,29.77,NNW,331,0.0,0.0,98,0.00,,,0.00,WUHU216PEETBRO,2013-08-04 07:32:00,
2013-08-04 03:37:00,56.8,56.3,29.77,NNW,331,0.0,0.0,98,0.00,,,0.00,WUHU216PEETBRO,2013-08-04 07:37:00,
2013-08-04 03:42:00,56.7,56.2,29.77,NNW,331,0.0,0.0,98,0.00,,,0.00,WUHU216PEETBRO,2013-08-04 07:42:00,
2013-08-04 03:47:00,56.6,56.1,29.77,NNW,331,0.0,0.0,98,0.00,,,0.00,WUHU216PEETBRO,2013-08-04 07:47:00,
2013-08-04 03:52:00,56.8,56.3,29.77,NNW,331,0.0,0.0,98,0.00,,,0.00,WUHU216PEETBRO,2013-08-04 07:52:00,
2013-08-04 03:57:00,57.0,56.5,29.77,NNW,331,0.0,0.0,98,0.00,,,0.00,WUHU216PEETBRO,2013-08-04 07:57:00,
2013-08-04 04:02:00,56.5,56.0,29.77,NNW,331,0.0,0.0,98,0.00,,,0.00,WUHU216PEETBRO,2013-08-04 08:02:00,
2013-08-04 04:07:00,56.5,56.0,29.77,NNW,331,0.0,0.0,98,0.00,,,0.00,WUHU216PEETBRO,2013-08-04 08:07:00,
2013-08-04 04:12:00,56.3,55.8,29.77,NNW,331,0.0,0.0,98,0.00,,,0.00,WUHU216PEETBRO,2013-08-04 08:12:00,
2013-08-04 04:17:00,56.3,55.8,29.77,NNW,331,0.0,0.0,98,0.00,,,0.00,WUHU216PEETBRO,2013-08-04 08:17:00,
2013-08-04 04:22:00,56.6,56.1,29.77,NNW,331,0.0,0.0,98,0.00,,,0.00,WUHU216PEETBRO,2013-08-04 08:22:00,
2013-08-04 04:27:00,56.4,55.9,29.78,NNW,331,0.0,0.0,98,0.00,,,0.00,WUHU216PEETBRO,2013-08-04 08:27:00,
2013-08-04 04:32:00,56.1,55.6,29.78,NNW,331,0.0,0.0,98,0.00,,,0.00,WUHU216PEETBRO,2013-08-04 08:32:00,
2013-08-04 04:37:00,56.2,55.5,29.78,NNW,331,0.0,0.0,98,0.00,,,0.00,WUHU216PEETBRO,2013-08-04 08:37:00,
2013-08-04 04:42:00,56.3,55.8,29.78,NNW,331,0.0,0.0,98,0.00,,,0.00,WUHU216PEETBRO,2013-08-04 08:42:00,
2013-08-04 04:47:00,56.0,55.5,29.78,NNW,331,0.0,0.0,98,0.00,,,0.00,WUHU216PEETBRO,2013-08-04 08:47:00,
2013-08-04 04:52:00,56.5,56.0,29.78,NNW,331,0.0,0.0,98,0.00,,,0.00,WUHU216PEETBRO,2013-08-04 08:52:00,
2013-08-04 04:57:00,56.2,55.7,29.78,NNW,331,0.0,0.0,98,0.00,,,0.00,WUHU216PEETBRO,2013-08-04 08:57:00,
2013-08-04 05:02:00,56.2,55.7,29.78,NNW,331,0.0,0.0,98,0.00,,,0.00,WUHU216PEETBRO,2013-08-04 09:02:00,
2013-08-04 05:07:00,56.4,55.9,29.78,NNW,331,0.0,0.0,98,0.00,,,0.00,WUHU216PEETBRO,2013-08-04 09:07:00,
2013-08-04 05:12:00,56.4,55.9,29.78,NNW,331,0.0,0.0,98,0.00,,,0.00,WUHU216PEETBRO,2013-08-04 09:12:00,
2013-08-04 05:17:00,56.4,55.9,29.78,NNW,331,0.0,0.0,98,0.00,,,0.00,WUHU216PEETBRO,2013-08-04 09:17:00,
2013-08-04 05:22:00,56.3,55.8,29.78,NNW,331,0.0,0.0,98,0.00,,,0.00,WUHU216PEETBRO,2013-08-04 09:22:00,
2013-08-04 05:27:00,56.4,56.0,29.78,NNW,331,0.0,0.0,99,0.00,,,0.00,WUHU216PEETBRO,2013-08-04 09:27:00,
2013-08-04 05:32:00,56.6,55.9,29.78,NNW,331,0.0,0.0,98,0.00,,,0.00,WUHU216PEETBRO,2013-08-04 09:32:00,
2013-08-04 05:37:00,56.2,55.7,29.78,NNW,331,0.0,0.0,98,0.00,,,0.00,WUHU216PEETBRO,2013-08-04 09:37:00,
2013-08-04 05:42:00,56.6,56.1,29.78,NNW,331,0.0,0.0,98,0.00,,,0.00,WUHU216PEETBRO,2013-08-04 09:42:00,
2013-08-04 05:47:00,56.3,55.8,29.78,NNW,331,0.0,0.0,98,0.00,,,0.00,WUHU216PEETBRO,2013-08-04 09:47:00,
2013-08-04 05:52:00,56.2,55.6,29.78,NNW,331,0.0,0.0,98,0.00,,,0.00,WUHU216PEETBRO,2013-08-04 09:52:00,
2013-08-04 05:57:00,56.4,55.9,29.78,NNW,331,0.0,0.0,98,0.00,,,0.00,WUHU216PEETBRO,2013-08-04 09:57:00,
2013-08-04 06:02:00,56.0,55.5,29.78,NNW,331,0.0,0.0,98,0.00,,,0.00,WUHU216PEETBRO,2013-08-04 10:02:00,
2013-08-04 06:07:00,56.3,55.6,29.78,NNW,331,0.0,0.0,98,0.00,,,0.00,WUHU216PEETBRO,2013-08-04 10:07:00,
2013-08-04 06:12:00,56.4,55.7,29.78,NNW,331,0.0,0.0,98,0.00,,,0.00,WUHU216PEETBRO,2013-08-04 10:12:00,
2013-08-04 06:17:00,55.9,55.4,29.78,NNW,331,0.0,0.0,98,0.00,,,0.00,WUHU216PEETBRO,2013-08-04 10:17:00,
2013-08-04 06:22:00,56.5,56.0,29.78,NNW,331,0.0,0.0,98,0.00,,,0.00,WUHU216PEETBRO,2013-08-04 10:22:00,
2013-08-04 06:27:00,56.1,55.4,29.78,NNW,331,0.0,0.0,98,0.00,,,0.00,WUHU216PEETBRO,2013-08-04 10:27:00,
2013-08-04 06:32:00,56.2,55.7,29.78,NNW,331,0.0,0.0,98,0.00,,,0.00,WUHU216PEETBRO,2013-08-04 10:32:00,
2013-08-04 06:37:00,57.0,56.5,29.78,NNW,331,0.0,0.0,98,0.00,,,0.00,WUHU216PEETBRO,2013-08-04 10:37:00,
2013-08-04 06:42:00,56.7,56.3,29.79,NNW,331,0.0,0.0,99,0.00,,,0.00,WUHU216PEETBRO,2013-08-04 10:42:00,
2013-08-04 06:47:00,57.2,56.8,29.79,NNW,331,0.0,0.0,99,0.00,,,0.00,WUHU216PEETBRO,2013-08-04 10:47:00,
2013-08-04 06:52:00,57.8,57.3,29.79,NNW,331,0.0,0.0,98,0.00,,,0.00,WUHU216PEETBRO,2013-08-04 10:52:00,
2013-08-04 06:57:00,58.1,57.6,29.79,NNW,331,0.0,0.0,98,0.00,,,0.00,WUHU216PEETBRO,2013-08-04 10:57:00,
2013-08-04 07:02:00,58.4,57.9,29.79,NNW,331,0.0,0.0,98,0.00,,,0.00,WUHU216PEETBRO,2013-08-04 11:02:00,
2013-08-04 07:07:00,59.1,58.6,29.79,NNW,331,0.0,0.0,98,0.00,,,0.00,WUHU216PEETBRO,2013-08-04 11:07:00,
2013-08-04 07:12:00,59.2,58.6,29.79,NNW,331,0.0,0.0,98,0.00,,,0.00,WUHU216PEETBRO,2013-08-04 11:12:00,
2013-08-04 07:17:00,59.3,58.7,29.79,NNW,331,0.0,0.0,98,0.00,,,0.00,WUHU216PEETBRO,2013-08-04 11:17:00,
2013-08-04 07:22:00,59.4,58.8,29.79,NNW,331,0.0,0.0,98,0.00,,,0.00,WUHU216PEETBRO,2013-08-04 11:22:00,
2013-08-04 07:27:00,59.5,58.8,29.79,NNW,344,0.4,4.8,98,0.00,,,0.00,WUHU216PEETBRO,2013-08-04 11:27:00,
2013-08-04 07:32:00,60.0,59.3,29.79,NNW,337,0.6,4.8,98,0.00,,,0.00,WUHU216PEETBRO,2013-08-04 11:32:00,
2013-08-04 07:37:00,60.8,60.0,29.79,NNW,331,1.6,5.7,97,0.00,,,0.00,WUHU216PEETBRO,2013-08-04 11:37:00,
2013-08-04 07:42:00,61.4,60.6,29.80,NNW,338,2.1,5.7,97,0.00,,,0.00,WUHU216PEETBRO,2013-08-04 11:42:00,
2013-08-04 07:47:00,61.7,60.6,29.80,North,354,3.2,6.7,96,0.00,,,0.00,WUHU216PEETBRO,2013-08-04 11:47:00,
2013-08-04 07:52:00,62.6,61.3,29.80,North,350,2.2,6.7,96,0.00,,,0.00,WUHU216PEETBRO,2013-08-04 11:52:00,
2013-08-04 07:57:00,63.2,61.8,29.80,North,349,2.4,6.6,95,0.00,,,0.00,WUHU216PEETBRO,2013-08-04 11:57:00,
2013-08-04 08:02:00,63.2,61.3,29.80,NNW,333,5.9,6.6,94,0.00,,,0.00,WUHU216PEETBRO,2013-08-04 12:02:00,
2013-08-04 08:07:00,63.4,60.6,29.80,NNW,330,2.1,8.0,91,0.00,,,0.00,WUHU216PEETBRO,2013-08-04 12:07:00,
2013-08-04 08:12:00,62.8,60.3,29.80,NNW,340,0.9,8.0,92,0.00,,,0.00,WUHU216PEETBRO,2013-08-04 12:12:00,
2013-08-04 08:17:00,63.8,61.4,29.80,NNW,340,0.9,4.8,92,0.00,,,0.00,WUHU216PEETBRO,2013-08-04 12:17:00,
2013-08-04 08:22:00,64.1,61.5,29.80,NNW,341,2.9,4.4,91,0.00,,,0.00,WUHU216PEETBRO,2013-08-04 12:22:00,
2013-08-04 08:27:00,64.7,61.8,29.80,NW,323,0.0,5.2,91,0.00,,,0.00,WUHU216PEETBRO,2013-08-04 12:27:00,
2013-08-04 08:32:00,65.1,61.1,29.79,NNW,342,0.0,6.0,87,0.00,,,0.00,WUHU216PEETBRO,2013-08-04 12:32:00,
2013-08-04 08:37:00,66.3,61.1,29.79,NNW,331,2.2,7.4,83,0.00,,,0.00,WUHU216PEETBRO,2013-08-04 12:37:00,
2013-08-04 08:42:00,67.8,62.2,29.79,NW,314,0.0,7.4,82,0.00,,,0.00,WUHU216PEETBRO,2013-08-04 12:42:00,
2013-08-04 08:47:00,68.0,61.4,29.79,NNW,330,3.5,6.5,79,0.00,,,0.00,WUHU216PEETBRO,2013-08-04 12:47:00,
2013-08-04 08:52:00,69.3,62.1,29.79,NNW,341,3.2,6.5,78,0.00,,,0.00,WUHU216PEETBRO,2013-08-04 12:52:00,
2013-08-04 08:57:00,70.3,62.6,29.80,NNW,337,1.1,6.6,76,0.00,,,0.00,WUHU216PEETBRO,2013-08-04 12:57:00,
2013-08-04 09:02:00,71.5,62.3,29.80,NNW,345,2.4,6.6,72,0.00,,,0.00,WUHU216PEETBRO,2013-08-04 13:02:00,
2013-08-04 09:07:00,71.2,62.2,29.79,North,359,1.8,5.6,73,0.00,,,0.00,WUHU216PEETBRO,2013-08-04 13:07:00,
2013-08-04 09:12:00,71.4,62.1,29.79,NW,311,0.0,5.6,72,0.00,,,0.00,WUHU216PEETBRO,2013-08-04 13:12:00,
2013-08-04 09:17:00,71.5,61.2,29.79,NNE,21,2.4,9.6,70,0.00,,,0.00,WUHU216PEETBRO,2013-08-04 13:17:00,
2013-08-04 09:22:00,71.7,60.8,29.79,North,1,1.1,9.6,68,0.00,,,0.00,WUHU216PEETBRO,2013-08-04 13:22:00,
2013-08-04 09:27:00,71.7,60.4,29.79,NNW,337,6.5,8.4,67,0.00,,,0.00,WUHU216PEETBRO,2013-08-04 13:27:00,
2013-08-04 09:32:00,72.5,60.4,29.79,North,4,2.5,8.8,65,0.00,,,0.00,WUHU216PEETBRO,2013-08-04 13:32:00,
2013-08-04 09:37:00,71.6,60.6,29.79,NNE,13,2.7,11.3,68,0.00,,,0.00,WUHU216PEETBRO,2013-08-04 13:37:00,
2013-08-04 09:42:00,71.9,61.4,29.79,NNW,340,1.6,11.3,69,0.00,,,0.00,WUHU216PEETBRO,2013-08-04 13:42:00,
2013-08-04 09:47:00,71.5,61.0,29.79,North,352,1.4,6.6,69,0.00,,,0.00,WUHU216PEETBRO,2013-08-04 13:47:00,
2013-08-04 09:52:00,71.0,59.3,29.79,NNW,347,2.4,10.7,66,0.00,,,0.00,WUHU216PEETBRO,2013-08-04 13:52:00,
2013-08-04 09:57:00,71.2,60.0,29.78,SSE,167,2.2,10.7,67,0.00,,,0.00,WUHU216PEETBRO,2013-08-04 13:57:00,
2013-08-04 10:02:00,70.7,59.9,29.79,NW,317,3.6,12.7,68,0.00,,,0.00,WUHU216PEETBRO,2013-08-04 14:02:00,
2013-08-04 10:07:00,70.3,59.9,29.79,North,352,6.2,12.7,69,0.00,,,0.00,WUHU216PEETBRO,2013-08-04 14:07:00,
2013-08-04 10:12:00,70.4,60.4,29.79,NNE,22,3.7,9.1,70,0.00,,,0.00,WUHU216PEETBRO,2013-08-04 14:12:00,
2013-08-04 10:17:00,70.8,60.9,29.79,NNW,348,6.1,8.7,71,0.00,,,0.00,WUHU216PEETBRO,2013-08-04 14:17:00,
2013-08-04 10:22:00,70.8,60.2,29.78,NNW,345,3.0,8.7,69,0.00,,,0.00,WUHU216PEETBRO,2013-08-04 14:22:00,
2013-08-04 10:27:00,70.2,60.3,29.78,North,350,6.3,9.4,70,0.00,,,0.00,WUHU216PEETBRO,2013-08-04 14:27:00,
2013-08-04 10:32:00,70.6,59.8,29.78,NNW,337,3.8,9.4,68,0.00,,,0.00,WUHU216PEETBRO,2013-08-04 14:32:00,
2013-08-04 10:37:00,70.9,60.7,29.79,North,355,3.9,9.4,70,0.00,,,0.00,WUHU216PEETBRO,2013-08-04 14:37:00,
2013-08-04 10:42:00,70.8,59.8,29.79,North,349,5.2,10.9,68,0.00,,,0.00,WUHU216PEETBRO,2013-08-04 14:42:00,
2013-08-04 10:47:00,71.2,59.4,29.79,North,6,3.3,10.9,66,0.00,,,0.00,WUHU216PEETBRO,2013-08-04 14:47:00,
2013-08-04 10:52:00,71.0,59.6,29.79,North,349,7.1,11.9,67,0.00,,,0.00,WUHU216PEETBRO,2013-08-04 14:52:00,
2013-08-04 10:57:00,71.7,60.6,29.79,NW,318,3.7,11.9,68,0.00,,,0.00,WUHU216PEETBRO,2013-08-04 14:57:00,
2013-08-04 11:02:00,72.0,60.6,29.79,NNW,338,0.6,8.8,67,0.00,,,0.00,WUHU216PEETBRO,2013-08-04 15:02:00,
2013-08-04 11:07:00,71.7,59.7,29.79,NW,318,5.7,11.1,66,0.00,,,0.00,WUHU216PEETBRO,2013-08-04 15:07:00,
2013-08-04 11:12:00,72.3,60.1,29.79,NW,314,0.0,11.1,65,0.00,,,0.00,WUHU216PEETBRO,2013-08-04 15:12:00,
2013-08-04 11:17:00,73.5,59.8,29.79,North,5,3.0,10.3,62,0.00,,,0.00,WUHU216PEETBRO,2013-08-04 15:17:00,
2013-08-04 11:22:00,73.6,60.2,29.78,ENE,74,0.2,10.1,62,0.00,,,0.00,WUHU216PEETBRO,2013-08-04 15:22:00,
2013-08-04 11:27:00,73.6,59.2,29.78,NE,43,0.0,8.3,60,0.00,,,0.00,WUHU216PEETBRO,2013-08-04 15:27:00,
2013-08-04 11:32:00,73.1,58.1,29.79,WNW,299,0.0,8.1,59,0.00,,,0.00,WUHU216PEETBRO,2013-08-04 15:32:00,
2013-08-04 11:37:00,73.9,59.5,29.78,NNE,18,0.0,10.8,60,0.00,,,0.00,WUHU216PEETBRO,2013-08-04 15:37:00,
2013-08-04 11:42:00,73.9,59.5,29.79,North,1,5.8,12.1,60,0.00,,,0.00,WUHU216PEETBRO,2013-08-04 15:42:00,
2013-08-04 11:47:00,73.7,59.3,29.78,North,4,4.5,12.1,60,0.00,,,0.00,WUHU216PEETBRO,2013-08-04 15:47:00,
2013-08-04 11:52:00,74.0,58.4,29.78,NNW,341,2.2,10.1,58,0.00,,,0.00,WUHU216PEETBRO,2013-08-04 15:52:00,
2013-08-04 11:57:00,74.3,58.4,29.78,North,8,9.4,10.1,57,0.00,,,0.00,WUHU216PEETBRO,2013-08-04 15:57:00,
2013-08-04 12:02:00,74.7,58.6,29.78,NNW,330,7.0,11.1,57,0.00,,,0.00,WUHU216PEETBRO,2013-08-04 16:02:00,
2013-08-04 12:07:00,75.2,58.9,29.78,NNW,337,6.8,12.0,57,0.00,,,0.00,WUHU216PEETBRO,2013-08-04 16:07:00,
2013-08-04 12:12:00,74.9,59.0,29.78,NNW,334,3.5,12.0,57,0.00,,,0.00,WUHU216PEETBRO,2013-08-04 16:12:00,
2013-08-04 12:17:00,74.2,59.0,29.78,NNW,335,4.3,7.6,59,0.00,,,0.00,WUHU216PEETBRO,2013-08-04 16:17:00,
2013-08-04 12:22:00,74.1,59.3,29.78,NNW,327,2.8,5.8,60,0.00,,,0.00,WUHU216PEETBRO,2013-08-04 16:22:00,
2013-08-04 12:27:00,74.6,58.4,29.78,NW,323,1.0,9.6,57,0.00,,,0.00,WUHU216PEETBRO,2013-08-04 16:27:00,
2013-08-04 12:32:00,74.0,57.4,29.77,NNW,341,4.1,9.6,56,0.00,,,0.00,WUHU216PEETBRO,2013-08-04 16:32:00,
2013-08-04 12:37:00,74.8,58.1,29.77,ENE,73,0.0,6.3,56,0.00,,,0.00,WUHU216PEETBRO,2013-08-04 16:37:00,
2013-08-04 12:42:00,73.7,57.5,29.77,North,2,4.0,6.3,57,0.00,,,0.00,WUHU216PEETBRO,2013-08-04 16:42:00,
2013-08-04 12:47:00,73.8,57.6,29.77,North,349,3.7,9.3,57,0.00,,,0.00,WUHU216PEETBRO,2013-08-04 16:47:00,
2013-08-04 12:52:00,74.2,57.7,29.77,North,5,2.2,9.6,56,0.00,,,0.00,WUHU216PEETBRO,2013-08-04 16:52:00,
2013-08-04 12:57:00,73.3,57.8,29.77,NW,316,0.0,9.6,58,0.00,,,0.00,WUHU216PEETBRO,2013-08-04 16:57:00,
2013-08-04 13:02:00,73.7,59.3,29.77,NNW,342,2.1,7.4,60,0.00,,,0.00,WUHU216PEETBRO,2013-08-04 17:02:00,
2013-08-04 13:07:00,73.5,58.7,29.77,WNW,296,0.0,6.5,59,0.00,,,0.00,WUHU216PEETBRO,2013-08-04 17:07:00,
2013-08-04 13:12:00,74.4,59.3,29.77,NNW,328,0.0,4.2,59,0.00,,,0.00,WUHU216PEETBRO,2013-08-04 17:12:00,
2013-08-04 13:17:00,74.2,59.9,29.76,WNW,297,0.0,5.6,61,0.00,,,0.00,WUHU216PEETBRO,2013-08-04 17:17:00,
2013-08-04 13:22:00,74.2,59.2,29.77,NNW,337,1.0,5.6,59,0.00,,,0.00,WUHU216PEETBRO,2013-08-04 17:22:00,
2013-08-04 13:27:00,74.2,59.6,29.77,SW,224,0.5,5.8,60,0.00,,,0.00,WUHU216PEETBRO,2013-08-04 17:27:00,
2013-08-04 13:32:00,73.9,59.8,29.76,North,358,4.4,8.1,61,0.00,,,0.00,WUHU216PEETBRO,2013-08-04 17:32:00,
2013-08-04 13:37:00,73.4,59.1,29.76,NNW,340,2.3,8.2,61,0.00,,,0.00,WUHU216PEETBRO,2013-08-04 17:37:00,
2013-08-04 13:42:00,74.0,59.4,29.76,NNW,347,7.3,8.2,60,0.00,,,0.00,WUHU216PEETBRO,2013-08-04 17:42:00,
2013-08-04 13:47:00,75.3,60.2,29.76,WSW,252,2.4,9.0,59,0.00,,,0.00,WUHU216PEETBRO,2013-08-04 17:47:00,
2013-08-04 13:52:00,75.8,59.9,29.76,NW,306,0.0,9.0,57,0.00,,,0.00,WUHU216PEETBRO,2013-08-04 17:52:00,
2013-08-04 13:57:00,76.1,58.2,29.76,NW,325,0.0,4.3,54,0.00,,,0.00,WUHU216PEETBRO,2013-08-04 17:57:00,
2013-08-04 14:02:00,76.1,59.5,29.76,NW,325,5.6,5.6,56,0.00,,,0.00,WUHU216PEETBRO,2013-08-04 18:02:00,
2013-08-04 14:08:00,75.8,58.5,29.76,North,355,4.2,13.4,55,0.00,,,0.00,WUHU216PEETBRO,2013-08-04 18:08:00,
2013-08-04 14:13:00,75.6,59.6,29.75,NW,325,4.7,13.4,57,0.00,,,0.00,WUHU216PEETBRO,2013-08-04 18:13:00,
2013-08-04 14:18:00,74.8,58.1,29.75,NNW,348,3.4,15.5,56,0.00,,,0.00,WUHU216PEETBRO,2013-08-04 18:18:00,
2013-08-04 14:23:00,74.8,57.7,29.75,North,352,3.0,15.5,55,0.00,,,0.00,WUHU216PEETBRO,2013-08-04 18:23:00,
2013-08-04 14:27:00,74.4,56.1,29.75,North,357,11.6,13.0,53,0.00,,,0.00,WUHU216PEETBRO,2013-08-04 18:27:00,
2013-08-04 14:33:00,74.5,56.7,29.75,North,351,6.0,13.0,54,0.00,,,0.00,WUHU216PEETBRO,2013-08-04 18:33:00,
2013-08-04 14:38:00,75.0,58.4,29.75,North,349,8.3,10.4,56,0.00,,,0.00,WUHU216PEETBRO,2013-08-04 18:38:00,
2013-08-04 14:43:00,75.3,58.4,29.75,North,352,0.0,9.4,56,0.00,,,0.00,WUHU216PEETBRO,2013-08-04 18:43:00,
2013-08-04 14:47:00,75.2,57.6,29.75,North,349,7.9,9.4,54,0.00,,,0.00,WUHU216PEETBRO,2013-08-04 18:47:00,
2013-08-04 14:53:00,75.9,58.5,29.75,NNW,335,10.4,10.7,55,0.00,,,0.00,WUHU216PEETBRO,2013-08-04 18:53:00,
2013-08-04 14:58:00,75.7,58.9,29.75,NNW,341,4.5,11.6,56,0.00,,,0.00,WUHU216PEETBRO,2013-08-04 18:58:00,
2013-08-04 15:02:00,75.2,57.7,29.75,NNW,330,0.0,11.6,54,0.00,,,0.00,WUHU216PEETBRO,2013-08-04 19:02:00,
2013-08-04 15:08:00,74.8,58.2,29.75,NNW,345,3.9,13.3,56,0.00,,,0.00,WUHU216PEETBRO,2013-08-04 19:08:00,
2013-08-04 15:13:00,74.3,56.6,29.75,North,349,7.5,13.3,54,0.00,,,0.00,WUHU216PEETBRO,2013-08-04 19:13:00,
2013-08-04 15:18:00,74.3,57.6,29.75,NNW,327,1.4,11.6,56,0.00,,,0.00,WUHU216PEETBRO,2013-08-04 19:18:00,
2013-08-04 15:22:00,74.4,57.7,29.75,NE,37,3.5,13.4,56,0.00,,,0.00,WUHU216PEETBRO,2013-08-04 19:22:00,
2013-08-04 15:28:00,74.6,56.3,29.75,NNW,340,5.3,13.4,53,0.00,,,0.00,WUHU216PEETBRO,2013-08-04 19:28:00,
2013-08-04 15:33:00,74.8,56.3,29.75,North,350,8.3,14.4,52,0.00,,,0.00,WUHU216PEETBRO,2013-08-04 19:33:00,
2013-08-04 15:38:00,74.8,56.1,29.75,North,349,3.2,14.4,52,0.00,,,0.00,WUHU216PEETBRO,2013-08-04 19:38:00,
2013-08-04 15:43:00,75.5,56.9,29.75,NNW,344,11.2,14.5,52,0.00,,,0.00,WUHU216PEETBRO,2013-08-04 19:43:00,
2013-08-04 15:47:00,75.3,56.1,29.74,NNE,12,1.7,14.5,51,0.00,,,0.00,WUHU216PEETBRO,2013-08-04 19:47:00,
2013-08-04 15:53:00,75.3,56.4,29.74,NNW,340,0.0,11.1,52,0.00,,,0.00,WUHU216PEETBRO,2013-08-04 19:53:00,
2013-08-04 15:58:00,75.3,56.5,29.74,NE,50,8.8,12.6,52,0.00,,,0.00,WUHU216PEETBRO,2013-08-04 19:58:00,
2013-08-04 16:03:00,75.0,57.6,29.74,North,352,3.5,12.6,55,0.00,,,0.00,WUHU216PEETBRO,2013-08-04 20:03:00,
2013-08-04 16:08:00,74.4,56.6,29.74,North,358,10.8,12.6,54,0.00,,,0.00,WUHU216PEETBRO,2013-08-04 20:08:00,
2013-08-04 16:13:00,74.6,56.2,29.75,North,352,3.7,13.2,53,0.00,,,0.00,WUHU216PEETBRO,2013-08-04 20:13:00,
2013-08-04 16:18:00,73.7,56.6,29.75,North,354,4.1,13.2,55,0.00,,,0.00,WUHU216PEETBRO,2013-08-04 20:18:00,
2013-08-04 16:23:00,74.2,57.6,29.76,ENE,67,1.8,12.6,56,0.00,,,0.00,WUHU216PEETBRO,2013-08-04 20:23:00,
2013-08-04 16:28:00,73.5,57.3,29.76,NNW,345,6.7,12.4,57,0.00,,,0.00,WUHU216PEETBRO,2013-08-04 20:28:00,
2013-08-04 16:33:00,72.5,56.5,29.75,NW,311,0.0,12.1,57,0.00,,,0.00,WUHU216PEETBRO,2013-08-04 20:33:00,
2013-08-04 16:37:00,72.4,57.2,29.76,NNW,347,3.7,10.0,59,0.00,,,0.00,WUHU216PEETBRO,2013-08-04 20:37:00,
2013-08-04 16:42:00,71.3,56.8,29.76,NNW,327,0.0,8.2,60,0.00,,,0.00,WUHU216PEETBRO,2013-08-04 20:42:00,
2013-08-04 16:48:00,71.8,57.8,29.76,North,1,4.4,8.2,61,0.00,,,0.00,WUHU216PEETBRO,2013-08-04 20:48:00,
2013-08-04 16:53:00,71.3,57.8,29.77,North,349,4.6,8.5,62,0.00,,,0.00,WUHU216PEETBRO,2013-08-04 20:53:00,
2013-08-04 16:57:00,71.1,57.8,29.77,NNE,12,7.1,9.3,62,0.00,,,0.00,WUHU216PEETBRO,2013-08-04 20:57:00,
2013-08-04 17:03:00,71.2,56.7,29.77,NW,314,0.0,9.3,60,0.00,,,0.00,WUHU216PEETBRO,2013-08-04 21:03:00,
2013-08-04 17:08:00,70.4,56.9,29.77,NNE,16,1.1,9.2,62,0.00,,,0.00,WUHU216PEETBRO,2013-08-04 21:08:00,
2013-08-04 17:13:00,71.4,57.9,29.77,North,2,0.0,8.0,62,0.00,,,0.00,WUHU216PEETBRO,2013-08-04 21:13:00,
2013-08-04 17:18:00,70.9,57.1,29.77,NNW,334,5.7,8.7,61,0.00,,,0.00,WUHU216PEETBRO,2013-08-04 21:18:00,
2013-08-04 17:23:00,71.6,57.6,29.77,North,351,4.0,10.6,61,0.00,,,0.00,WUHU216PEETBRO,2013-08-04 21:23:00,
2013-08-04 17:28:00,72.2,57.6,29.77,NNW,340,0.0,10.6,60,0.00,,,0.00,WUHU216PEETBRO,2013-08-04 21:28:00,
2013-08-04 17:33:00,72.1,58.3,29.77,North,11,0.0,7.8,62,0.00,,,0.00,WUHU216PEETBRO,2013-08-04 21:33:00,
2013-08-04 17:37:00,73.0,58.4,29.77,North,359,0.0,8.6,60,0.00,,,0.00,WUHU216PEETBRO,2013-08-04 21:37:00,
2013-08-04 17:43:00,71.6,57.9,29.78,NW,316,2.4,8.6,62,0.00,,,0.00,WUHU216PEETBRO,2013-08-04 21:43:00,
2013-08-04 17:48:00,72.5,57.5,29.77,NW,306,0.0,10.4,59,0.00,,,0.00,WUHU216PEETBRO,2013-08-04 21:48:00,
2013-08-04 17:50:00,72.5,58.2,29.77,ENE,67,1.1,10.4,61,0.00,,,0.00,WUHU216PEETBRO,2013-08-04 21:50:00,
2013-08-04 17:55:00,72.4,57.4,29.78,NNW,340,1.4,11.1,59,0.00,,,0.00,WUHU216PEETBRO,2013-08-04 21:55:00,
2013-08-04 18:00:00,71.7,56.0,29.77,NNW,334,3.0,14.8,57,0.00,,,0.00,WUHU216PEETBRO,2013-08-04 22:00:00,
2013-08-04 18:04:00,72.3,56.4,29.77,NNW,327,3.6,14.8,57,0.00,,,0.00,WUHU216PEETBRO,2013-08-04 22:04:00,
2013-08-04 18:10:00,72.1,55.4,29.77,North,2,8.6,16.3,55,0.00,,,0.00,WUHU216PEETBRO,2013-08-04 22:10:00,
2013-08-04 18:15:00,72.7,55.9,29.78,NNW,347,6.3,16.3,55,0.00,,,0.00,WUHU216PEETBRO,2013-08-04 22:15:00,
2013-08-04 18:19:00,72.3,56.0,29.78,North,355,9.0,13.5,56,0.00,,,0.00,WUHU216PEETBRO,2013-08-04 22:19:00,
2013-08-04 18:24:00,71.9,55.9,29.78,NNW,348,3.5,12.5,57,0.00,,,0.00,WUHU216PEETBRO,2013-08-04 22:24:00,
2013-08-04 18:30:00,71.8,56.1,29.78,North,357,8.5,12.1,57,0.00,,,0.00,WUHU216PEETBRO,2013-08-04 22:30:00,
2013-08-04 18:35:00,71.5,56.2,29.78,NNE,13,5.5,12.1,58,0.00,,,0.00,WUHU216PEETBRO,2013-08-04 22:35:00,
2013-08-04 18:40:00,70.8,55.9,29.78,WNW,301,0.0,11.9,59,0.00,,,0.00,WUHU216PEETBRO,2013-08-04 22:40:00,
2013-08-04 18:45:00,70.2,55.4,29.78,NNW,331,0.0,10.4,59,0.00,,,0.00,WUHU216PEETBRO,2013-08-04 22:45:00,
2013-08-04 18:50:00,70.2,55.7,29.78,North,2,2.5,9.2,60,0.00,,,0.00,WUHU216PEETBRO,2013-08-04 22:50:00,
2013-08-04 18:55:00,69.6,55.1,29.78,NNW,347,5.1,9.4,60,0.00,,,0.00,WUHU216PEETBRO,2013-08-04 22:55:00,
2013-08-04 19:00:00,69.5,55.3,29.78,NNW,342,0.0,9.4,60,0.00,,,0.00,WUHU216PEETBRO,2013-08-04 23:00:00,
2013-08-04 19:05:00,68.6,54.8,29.79,NW,318,0.0,11.3,61,0.00,,,0.00,WUHU216PEETBRO,2013-08-04 23:05:00,
2013-08-04 19:10:00,69.1,55.6,29.80,NNW,341,0.8,11.3,62,0.00,,,0.00,WUHU216PEETBRO,2013-08-04 23:10:00,
2013-08-04 19:15:00,68.6,55.5,29.80,NNW,345,3.7,10.6,63,0.00,,,0.00,WUHU216PEETBRO,2013-08-04 23:15:00,
2013-08-04 19:20:00,68.1,55.3,29.80,NNW,341,0.0,7.4,63,0.00,,,0.00,WUHU216PEETBRO,2013-08-04 23:20:00,
2013-08-04 19:25:00,68.4,56.0,29.80,North,349,5.4,7.9,64,0.00,,,0.00,WUHU216PEETBRO,2013-08-04 23:25:00,
2013-08-04 19:30:00,68.2,56.1,29.80,NNW,341,0.0,7.9,65,0.00,,,0.00,WUHU216PEETBRO,2013-08-04 23:30:00,
2013-08-04 19:35:00,68.3,57.5,29.80,NNW,331,0.0,7.2,68,0.00,,,0.00,WUHU216PEETBRO,2013-08-04 23:35:00,
2013-08-04 19:40:00,67.9,57.0,29.81,NNW,331,0.0,4.8,68,0.00,,,0.00,WUHU216PEETBRO,2013-08-04 23:40:00,
2013-08-04 19:45:00,68.1,58.0,29.81,NNW,331,0.0,0.0,70,0.00,,,0.00,WUHU216PEETBRO,2013-08-04 23:45:00,
2013-08-04 19:50:00,67.4,57.7,29.81,NNW,331,0.0,0.0,71,0.00,,,0.00,WUHU216PEETBRO,2013-08-04 23:50:00,
2013-08-04 19:55:00,66.1,57.5,29.81,NNW,331,0.0,0.0,73,0.00,,,0.00,WUHU216PEETBRO,2013-08-04 23:55:00,
2013-08-04 20:00:00,66.0,57.9,29.82,NNW,331,0.0,0.0,75,0.00,,,0.00,WUHU216PEETBRO,2013-08-05 00:00:00,
2013-08-04 20:05:00,65.6,57.8,29.82,NNW,331,0.0,0.0,76,0.00,,,0.00,WUHU216PEETBRO,2013-08-05 00:05:00,
2013-08-04 20:10:00,64.9,57.5,29.82,NNW,331,0.0,0.0,77,0.00,,,0.00,WUHU216PEETBRO,2013-08-05 00:10:00,
2013-08-04 20:15:00,65.0,58.2,29.82,NNW,331,0.0,0.0,78,0.00,,,0.00,WUHU216PEETBRO,2013-08-05 00:15:00,
2013-08-04 20:20:00,63.7,57.4,29.82,NNW,331,0.0,0.0,80,0.00,,,0.00,WUHU216PEETBRO,2013-08-05 00:20:00,
2013-08-04 20:25:00,63.7,57.8,29.82,NNW,331,0.0,0.0,81,0.00,,,0.00,WUHU216PEETBRO,2013-08-05 00:25:00,
2013-08-04 20:30:00,63.7,58.1,29.83,NNW,331,0.0,0.0,82,0.00,,,0.00,WUHU216PEETBRO,2013-08-05 00:30:00,
2013-08-04 20:35:00,63.9,58.4,29.83,NNW,331,0.0,0.0,82,0.00,,,0.00,WUHU216PEETBRO,2013-08-05 00:35:00,
2013-08-04 20:40:00,63.3,58.4,29.83,NNW,331,0.0,0.0,84,0.00,,,0.00,WUHU216PEETBRO,2013-08-05 00:40:00,
2013-08-04 20:45:00,63.2,58.4,29.83,NNW,331,0.0,0.0,84,0.00,,,0.00,WUHU216PEETBRO,2013-08-05 00:45:00,
2013-08-04 20:50:00,62.4,57.9,29.83,NNW,331,0.0,0.0,85,0.00,,,0.00,WUHU216PEETBRO,2013-08-05 00:50:00,
2013-08-04 20:55:00,61.8,57.7,29.83,NNW,331,0.0,0.0,86,0.00,,,0.00,WUHU216PEETBRO,2013-08-05 00:55:00,
2013-08-04 21:00:00,61.5,57.6,29.83,NNW,331,0.0,0.0,87,0.00,,,0.00,WUHU216PEETBRO,2013-08-05 01:00:00,
2013-08-04 21:05:00,61.3,57.8,29.83,NNW,331,0.0,0.0,88,0.00,,,0.00,WUHU216PEETBRO,2013-08-05 01:05:00,
2013-08-04 21:10:00,61.2,58.0,29.83,NNW,331,0.0,0.0,89,0.00,,,0.00,WUHU216PEETBRO,2013-08-05 01:10:00,
2013-08-04 21:15:00,59.9,56.9,29.84,NNW,331,0.0,0.0,90,0.00,,,0.00,WUHU216PEETBRO,2013-08-05 01:15:00,
2013-08-04 21:20:00,61.1,58.3,29.84,NNW,331,0.0,0.0,91,0.00,,,0.00,WUHU216PEETBRO,2013-08-05 01:20:00,
2013-08-04 21:25:00,60.2,57.7,29.84,NNW,331,1.4,1.7,92,0.00,,,0.00,WUHU216PEETBRO,2013-08-05 01:25:00,
2013-08-04 21:30:00,60.0,57.6,29.84,NNW,328,0.0,1.7,92,0.00,,,0.00,WUHU216PEETBRO,2013-08-05 01:30:00,
2013-08-04 21:35:00,59.8,57.8,29.84,NW,323,0.0,1.7,93,0.00,,,0.00,WUHU216PEETBRO,2013-08-05 01:35:00,
2013-08-04 21:40:00,60.1,58.0,29.84,NNW,342,3.4,3.4,93,0.00,,,0.00,WUHU216PEETBRO,2013-08-05 01:40:00,
2013-08-04 21:45:00,59.8,57.8,29.84,NNW,333,1.7,6.3,93,0.00,,,0.00,WUHU216PEETBRO,2013-08-05 01:45:00,
2013-08-04 21:50:00,60.4,58.7,29.85,NW,325,0.0,6.3,94,0.00,,,0.00,WUHU216PEETBRO,2013-08-05 01:50:00,
2013-08-04 21:55:00,60.1,58.2,29.85,WNW,301,0.0,4.2,94,0.00,,,0.00,WUHU216PEETBRO,2013-08-05 01:55:00,
2013-08-04 22:00:00,59.7,57.4,29.85,NW,321,0.7,4.2,92,0.00,,,0.00,WUHU216PEETBRO,2013-08-05 02:00:00,
2013-08-04 22:05:00,59.8,57.3,29.85,NNW,333,1.3,2.9,92,0.00,,,0.00,WUHU216PEETBRO,2013-08-05 02:05:00,
2013-08-04 22:10:00,60.1,57.7,29.85,NW,316,0.5,6.3,92,0.00,,,0.00,WUHU216PEETBRO,2013-08-05 02:10:00,
2013-08-04 22:15:00,59.7,57.4,29.85,NW,309,0.0,6.3,92,0.00,,,0.00,WUHU216PEETBRO,2013-08-05 02:15:00,
2013-08-04 22:20:00,59.6,57.1,29.85,NW,325,0.0,4.8,92,0.00,,,0.00,WUHU216PEETBRO,2013-08-05 02:20:00,
2013-08-04 22:25:00,59.6,57.1,29.85,NNW,335,2.8,7.9,92,0.00,,,0.00,WUHU216PEETBRO,2013-08-05 02:25:00,
2013-08-04 22:30:00,60.0,57.5,29.85,North,350,2.3,9.7,91,0.00,,,0.00,WUHU216PEETBRO,2013-08-05 02:30:00,
2013-08-04 22:35:00,60.5,57.4,29.85,NNW,340,3.2,9.7,90,0.00,,,0.00,WUHU216PEETBRO,2013-08-05 02:35:00,
2013-08-04 22:40:00,60.1,56.6,29.85,NW,316,0.0,7.7,88,0.00,,,0.00,WUHU216PEETBRO,2013-08-05 02:40:00,
2013-08-04 22:45:00,61.0,57.2,29.85,North,350,1.8,7.6,87,0.00,,,0.00,WUHU216PEETBRO,2013-08-05 02:45:00,
2013-08-04 22:50:00,59.7,55.8,29.85,NNW,338,6.6,7.9,87,0.00,,,0.00,WUHU216PEETBRO,2013-08-05 02:50:00,
2013-08-04 22:55:00,60.4,56.5,29.85,NNW,328,7.2,12.0,87,0.00,,,0.00,WUHU216PEETBRO,2013-08-05 02:55:00,
2013-08-04 23:00:00,60.1,55.9,29.85,North,6,0.4,12.0,86,0.00,,,0.00,WUHU216PEETBRO,2013-08-05 03:00:00,
2013-08-04 23:05:00,60.4,55.8,29.85,North,359,3.1,7.8,85,0.00,,,0.00,WUHU216PEETBRO,2013-08-05 03:05:00,
2013-08-04 23:10:00,59.8,54.9,29.85,North,359,4.8,12.0,84,0.00,,,0.00,WUHU216PEETBRO,2013-08-05 03:10:00,
2013-08-04 23:15:00,59.7,54.4,29.85,North,351,7.1,12.0,83,0.00,,,0.00,WUHU216PEETBRO,2013-08-05 03:15:00,
2013-08-04 23:20:00,60.2,55.1,29.85,NNE,12,4.0,9.0,83,0.00,,,0.00,WUHU216PEETBRO,2013-08-05 03:20:00,
2013-08-04 23:25:00,60.8,55.6,29.85,NNW,344,3.7,8.8,83,0.00,,,0.00,WUHU216PEETBRO,2013-08-05 03:25:00,
2013-08-04 23:30:00,60.5,55.5,29.85,NNW,334,2.2,7.8,84,0.00,,,0.00,WUHU216PEETBRO,2013-08-05 03:30:00,
2013-08-04 23:35:00,59.7,54.8,29.85,North,2,2.2,9.1,84,0.00,,,0.00,WUHU216PEETBRO,2013-08-05 03:35:00,
2013-08-04 23:40:00,60.0,55.1,29.85,NNW,347,1.1,9.1,84,0.00,,,0.00,WUHU216PEETBRO,2013-08-05 03:40:00,
2013-08-04 23:45:00,59.9,55.1,29.85,North,5,2.7,7.3,84,0.00,,,0.00,WUHU216PEETBRO,2013-08-05 03:45:00,
2013-08-04 23:50:00,60.0,55.1,29.85,NW,317,0.6,6.1,84,0.00,,,0.00,WUHU216PEETBRO,2013-08-05 03:50:00,
2013-08-04 23:55:00,59.6,54.6,29.85,NNW,341,1.9,5.8,83,0.00,,,0.00,WUHU216PEETBRO,2013-08-05 03:55:00,